Terminal Aerodrome Forecast
Issued by NWS

Home | Current Version | Previous Version | Text Only | Print | Product List | Glossary On
Versions: 1 2 3 4 5 6 7 8 9 10 11 12 13 14 15 16 17 18 19 20 21 22 23
000
FTUS44 KOHX 272200 AAB
TAFCKV
TAF AMD
KCKV 272212Z 2722/2818 15006KT 4SM -SHRA BR SCT010 OVC020
      TEMPO 2722/2801 1 1/2SM BR OVC010
     FM280100 18005KT 4SM SHRA BR OVC009
     FM280400 34010KT 3SM SHRA BR OVC004=

USA.gov is the U.S. government's official web portal to all federal, state and local government web resources and services.